createdAt,value
2022-09-03T00:00:09.320Z,69.18
2022-09-03T00:05:23.698Z,69.68
2022-09-03T00:10:37.017Z,70.10
2022-09-03T00:15:44.683Z,70.44
2022-09-03T00:20:58.077Z,70.80
2022-09-03T00:26:26.110Z,71.07
2022-09-03T00:31:39.387Z,71.32
2022-09-03T00:36:48.138Z,71.53
2022-09-03T00:42:12.200Z,71.57
2022-09-03T00:47:26.468Z,71.48
2022-09-03T00:52:47.873Z,71.40
2022-09-03T00:58:15.350Z,71.08
2022-09-03T01:03:30.075Z,70.74
2022-09-03T01:08:58.029Z,70.17
2022-09-03T01:14:19.270Z,69.93
2022-09-03T01:19:51.662Z,70.00
2022-09-03T01:25:14.177Z,69.92
2022-09-03T01:30:24.448Z,69.94
2022-09-03T01:35:40.735Z,70.00
2022-09-03T01:40:54.339Z,70.09
2022-09-03T01:46:07.317Z,70.29
2022-09-03T01:51:21.920Z,70.36
2022-09-03T01:56:40.694Z,70.28
2022-09-03T02:01:55.014Z,70.23
2022-09-03T02:07:05.220Z,69.96
2022-09-03T02:12:19.097Z,69.76
2022-09-03T02:17:27.111Z,69.48
2022-09-03T02:22:35.220Z,69.31
2022-09-03T02:27:43.461Z,69.26
2022-09-03T02:32:50.988Z,69.33
2022-09-03T02:37:58.360Z,69.22
2022-09-03T02:43:08.818Z,69.40
2022-09-03T02:48:19.791Z,69.34
2022-09-03T02:53:28.760Z,68.99
2022-09-03T02:58:36.225Z,68.97
2022-09-03T03:03:44.563Z,68.99
2022-09-03T03:08:52.663Z,68.93
2022-09-03T03:14:00.297Z,69.41
2022-09-03T03:19:07.997Z,69.66
2022-09-03T03:24:15.758Z,69.29
2022-09-03T03:29:25.792Z,68.90
2022-09-03T03:34:33.694Z,68.74
2022-09-03T03:39:41.096Z,68.77
2022-09-03T03:44:48.522Z,68.91
2022-09-03T03:49:55.708Z,68.80
2022-09-03T03:55:03.289Z,68.12
2022-09-03T04:00:12.496Z,68.10
2022-09-03T04:05:23.212Z,67.95
2022-09-03T04:10:31.646Z,67.91
2022-09-03T04:15:38.898Z,68.18
2022-09-03T04:20:46.208Z,68.42
2022-09-03T04:25:57.646Z,68.74
2022-09-03T04:31:07.605Z,68.94
2022-09-03T04:36:17.303Z,69.50
2022-09-03T04:41:27.312Z,70.14
2022-09-03T04:46:35.040Z,70.80
2022-09-03T04:51:42.607Z,71.23
2022-09-03T04:56:50.221Z,71.42
2022-09-03T05:01:57.992Z,71.64
2022-09-03T05:07:05.905Z,71.85
2022-09-03T05:12:13.714Z,71.98
2022-09-03T05:17:21.363Z,72.15
2022-09-03T05:22:29.316Z,72.25
2022-09-03T05:27:37.179Z,72.14
2022-09-03T05:32:44.740Z,72.10
2022-09-03T05:37:52.322Z,72.36
2022-09-03T05:43:07.857Z,72.58
2022-09-03T05:48:15.694Z,72.68
2022-09-03T05:53:23.850Z,72.93
2022-09-03T05:58:34.312Z,73.03
2022-09-03T06:03:41.771Z,73.15
2022-09-03T06:08:52.018Z,73.21
2022-09-03T06:14:01.776Z,73.19
2022-09-03T06:19:10.038Z,73.15
2022-09-03T06:24:19.375Z,73.08
2022-09-03T06:29:27.471Z,73.12
2022-09-03T06:34:35.220Z,73.02
2022-09-03T06:39:42.519Z,72.91
2022-09-03T06:44:50.066Z,72.74
2022-09-03T06:49:57.311Z,72.53
2022-09-03T06:55:04.792Z,72.26
2022-09-03T07:00:14.612Z,72.02
2022-09-03T07:05:22.159Z,71.82
2022-09-03T07:10:29.324Z,71.51
2022-09-03T07:15:37.101Z,71.16
2022-09-03T07:20:44.497Z,70.82
2022-09-03T07:25:58.782Z,70.45
2022-09-03T07:31:09.347Z,70.16
2022-09-03T07:36:18.953Z,69.90
2022-09-03T07:41:28.691Z,69.40
2022-09-03T07:46:38.452Z,69.05
2022-09-03T07:51:46.866Z,68.65
2022-09-03T07:56:54.197Z,68.25
2022-09-03T08:02:01.597Z,67.66
2022-09-03T08:07:09.032Z,67.34
2022-09-03T08:12:16.195Z,66.95
2022-09-03T08:17:23.516Z,66.94
2022-09-03T08:22:31.499Z,66.72
2022-09-03T08:27:38.702Z,66.11
2022-09-03T08:32:46.105Z,65.59
2022-09-03T08:37:56.769Z,65.13
2022-09-03T08:43:19.363Z,64.63
2022-09-03T08:48:29.699Z,64.12
2022-09-03T08:53:43.904Z,63.55
2022-09-03T08:58:51.197Z,63.05
2022-09-03T09:04:10.299Z,62.56
2022-09-03T09:09:32.202Z,62.29
2022-09-03T09:14:47.205Z,61.98
2022-09-03T09:20:06.557Z,61.60
2022-09-03T09:25:18.519Z,61.17
2022-09-03T09:30:23.905Z,60.38
2022-09-03T09:35:31.961Z,61.11
2022-09-03T09:40:44.846Z,59.78
2022-09-03T09:45:54.601Z,59.50
2022-09-03T09:51:12.184Z,59.23
2022-09-03T09:56:27.065Z,58.58
2022-09-03T10:01:34.329Z,58.09
2022-09-03T10:06:57.634Z,57.75
2022-09-03T10:12:16.031Z,57.42
2022-09-03T10:17:37.313Z,57.16
2022-09-03T10:22:56.237Z,56.74
2022-09-03T10:28:04.689Z,56.83
2022-09-03T10:33:20.604Z,56.58
2022-09-03T10:38:34.292Z,56.22
2022-09-03T10:44:02.063Z,56.23
2022-09-03T10:49:42.351Z,56.49
2022-09-03T10:55:10.664Z,56.30
2022-09-03T11:00:20.625Z,55.81
2022-09-03T11:05:37.554Z,55.33
2022-09-03T11:10:50.795Z,54.90
2022-09-03T11:16:01.512Z,54.50
2022-09-03T11:21:13.230Z,54.19
2022-09-03T11:26:23.350Z,53.92
2022-09-03T11:31:48.545Z,53.71
2022-09-03T11:37:06.354Z,53.97
2022-09-03T11:42:26.381Z,53.78
2022-09-03T11:47:44.247Z,53.21
2022-09-03T11:52:53.869Z,52.77
2022-09-03T11:58:12.347Z,52.37
2022-09-03T12:03:20.090Z,51.98
2022-09-03T12:09:02.474Z,51.53
2022-09-03T12:14:15.570Z,51.42
2022-09-03T12:19:31.209Z,50.85
2022-09-03T12:24:38.614Z,50.57
2022-09-03T12:29:58.630Z,50.31
2022-09-03T12:46:21.718Z,49.45
2022-09-03T12:51:56.941Z,49.09
2022-09-03T12:57:06.388Z,49.10
2022-09-03T13:02:23.630Z,48.70
2022-09-03T13:07:37.698Z,48.90
2022-09-03T13:12:53.337Z,48.54
2022-09-03T13:18:27.103Z,48.37
2022-09-03T13:23:53.541Z,48.20
2022-09-03T13:29:17.408Z,48.17
2022-09-03T13:34:30.058Z,48.29
2022-09-03T13:39:45.288Z,48.26
2022-09-03T13:44:59.835Z,48.55
2022-09-03T13:50:27.613Z,48.66
2022-09-03T13:55:45.468Z,48.47
2022-09-03T14:00:56.439Z,48.21
2022-09-03T14:06:11.331Z,47.87
2022-09-03T14:11:31.074Z,47.89
2022-09-03T14:16:44.872Z,47.74
2022-09-03T14:22:00.335Z,47.48
2022-09-03T14:27:08.266Z,47.53
2022-09-03T14:32:29.286Z,47.43
2022-09-03T14:38:04.323Z,47.43
2022-09-03T14:43:28.474Z,47.33
2022-09-03T14:49:02.856Z,47.07
2022-09-03T14:54:30.296Z,46.91
2022-09-03T14:59:56.271Z,46.70
2022-09-03T15:05:16.702Z,46.61
2022-09-03T15:10:36.839Z,46.43
2022-09-03T15:16:13.810Z,46.49
2022-09-03T15:21:42.875Z,46.46
2022-09-03T15:27:03.796Z,46.31
2022-09-03T15:32:22.590Z,46.23
2022-09-03T15:37:35.054Z,46.31
2022-09-03T15:42:45.252Z,46.35
2022-09-03T15:47:58.548Z,46.45
2022-09-03T15:53:17.034Z,46.42
2022-09-03T15:58:31.275Z,46.38
2022-09-03T16:03:47.125Z,46.26
2022-09-03T16:09:01.763Z,46.36
2022-09-03T16:14:17.086Z,46.44
2022-09-03T16:19:30.715Z,46.54
2022-09-03T16:24:48.967Z,46.65
2022-09-03T16:30:03.811Z,46.79
2022-09-03T16:35:24.054Z,46.81
2022-09-03T16:40:41.257Z,46.84
2022-09-03T16:46:01.067Z,46.90
2022-09-03T16:51:16.540Z,47.01
2022-09-03T16:56:40.380Z,47.15
2022-09-03T17:02:13.848Z,47.25
2022-09-03T17:07:49.026Z,47.38
2022-09-03T17:13:07.234Z,47.50
2022-09-03T17:18:39.817Z,47.67
2022-09-03T17:24:19.283Z,47.82
2022-09-03T17:29:42.132Z,47.99
2022-09-03T17:35:02.043Z,48.42
2022-09-03T17:40:23.957Z,48.70
2022-09-03T17:45:47.929Z,48.88
2022-09-03T17:51:02.701Z,49.00
2022-09-03T17:56:13.798Z,49.19
2022-09-03T18:01:29.340Z,49.50
2022-09-03T18:06:52.585Z,49.80
2022-09-03T18:12:08.261Z,50.08
2022-09-03T18:17:21.423Z,50.58
2022-09-03T18:22:52.819Z,51.04
2022-09-03T18:28:23.037Z,51.36
2022-09-03T18:33:50.821Z,51.61
2022-09-03T18:39:29.499Z,51.90
2022-09-03T18:45:20.706Z,52.14
2022-09-03T18:50:54.316Z,52.43
2022-09-03T18:56:28.576Z,52.80
2022-09-03T19:01:57.197Z,53.12
2022-09-03T19:07:28.545Z,53.40
2022-09-03T19:13:07.177Z,53.69
2022-09-03T19:18:47.970Z,54.04
2022-09-03T19:24:21.409Z,54.30
2022-09-03T19:30:02.786Z,54.52
2022-09-03T19:35:36.401Z,54.71
2022-09-03T19:41:21.812Z,54.91
2022-09-03T19:46:56.672Z,55.07
2022-09-03T19:52:29.360Z,55.24
2022-09-03T19:57:53.980Z,55.41
2022-09-03T20:03:21.972Z,55.56
2022-09-03T20:08:49.166Z,55.72
2022-09-03T20:14:17.639Z,55.84
2022-09-03T20:19:34.494Z,55.95
2022-09-03T20:24:56.825Z,56.13
2022-09-03T20:30:09.736Z,56.24
2022-09-03T20:35:24.228Z,56.35
2022-09-03T20:40:43.634Z,56.45
2022-09-03T20:46:09.579Z,56.56
2022-09-03T20:51:23.350Z,56.64
2022-09-03T20:56:35.513Z,56.83
2022-09-03T21:01:57.867Z,56.93
2022-09-03T21:07:18.712Z,57.01
2022-09-03T21:12:38.709Z,57.09
2022-09-03T21:18:00.465Z,57.16
2022-09-03T21:23:21.289Z,57.25
2022-09-03T21:28:38.944Z,57.34
2022-09-03T21:33:50.659Z,57.43
2022-09-03T21:39:07.693Z,57.54
2022-09-03T21:44:21.235Z,57.66
2022-09-03T21:49:33.670Z,57.74
2022-09-03T21:54:41.233Z,57.83
2022-09-03T22:00:20.442Z,57.88
2022-09-03T22:05:31.350Z,57.88
2022-09-03T22:10:59.240Z,57.93
2022-09-03T22:16:15.146Z,57.98
2022-09-03T22:21:29.385Z,58.07
2022-09-03T22:26:46.838Z,58.21
2022-09-03T22:32:00.680Z,58.35
2022-09-03T22:37:15.978Z,58.58
2022-09-03T22:42:47.532Z,58.79
2022-09-03T22:48:08.539Z,58.91
2022-09-03T22:53:28.058Z,59.07
2022-09-03T22:58:39.212Z,59.11
2022-09-03T23:03:55.729Z,59.18
2022-09-03T23:09:08.133Z,59.20
2022-09-03T23:14:18.719Z,59.27
2022-09-03T23:19:37.046Z,59.33
2022-09-03T23:24:50.100Z,59.36
2022-09-03T23:29:58.973Z,59.41
2022-09-03T23:35:12.440Z,59.48
2022-09-03T23:40:41.680Z,59.51
2022-09-03T23:46:01.107Z,59.53
2022-09-03T23:51:17.638Z,59.56
2022-09-03T23:56:49.110Z,59.57
